LKP weather

Lake Placid Airport
Lake Placid, New York, United States

Public forecast

Using degrees Fahrenheit for public forecast. Weather courtesy of forecast.io.

METAR (pilot weather report)

Closest report is Adirondack Regional Airport, 12.8 nm (23.6 km) NW. Retrieved 2019/05/24 02:24 UTC (1 minute ago):

KSLK 240224Z AUTO 25008KT 10SM SCT016 BKN021 BKN026 14/13 A2973 RMK AO2 T01440128

TAF (pilot weather forecast)

Forecast is more than 12 hours old.

Closest forecast is Adirondack Regional Airport, 12.8 nm (23.6 km) NW. Retrieved 2019/05/23 00:30 UTC (1 day ago):

TAF KSLK 232327Z 2400/2424 23013KT P6SM VCSH SCT010 BKN018 OVC035 TEMPO 2400/2401 2SM TS BR OVC011CB FM240100 24009G21KT P6SM VCSH BKN020 FM240500 25015G26KT P6SM VCSH BKN012 FM240900 30011G19KT P6SM VCSH OVC005 FM241600 33010KT P6SM BKN012